Time;durP1;ratioP1;P1;durP2;ratioP2;P2;SDS_P1;SDS_P2;PMS_P1;PMS_P2;Temp;Humidity;BMP_temperature;BMP_pressure;BME280_temperature;BME280_humidity;BME280_pressure;Samples;Min_cycle;Max_cycle;Signal;HPM_P1;HPM_P2
2023/01/05 00:01:16;;;;;;;0.63;0.40;;;;;;;;;;4953493;29;20458;-68
2023/01/05 00:03:42;;;;;;;0.40;0.40;;;;;;;;;;4953603;29;20450;-67
2023/01/05 00:06:13;;;;;;;0.50;0.50;;;;;;;;;;4952917;28;20965;-67
2023/01/05 00:08:39;;;;;;;0.40;0.40;;;;;;;;;;4952832;29;20938;-67
2023/01/05 00:22:31;;;;;;;0.30;0.30;;;;;;;;;;4954210;29;20410;-67
2023/01/05 00:25:04;;;;;;;0.37;0.37;;;;;;;;;;4952830;29;20435;-67
2023/01/05 00:27:31;;;;;;;0.43;0.30;;;;;;;;;;4952663;28;20505;-67
2023/01/05 00:29:57;;;;;;;0.97;0.30;;;;;;;;;;4952868;28;20445;-66
2023/01/05 00:32:23;;;;;;;0.30;0.30;;;;;;;;;;4952832;29;20474;-66
2023/01/05 00:34:53;;;;;;;0.40;0.40;;;;;;;;;;4953084;28;20811;-67
2023/01/05 00:37:18;;;;;;;0.53;0.40;;;;;;;;;;4952176;29;20439;-67
2023/01/05 00:39:44;;;;;;;0.30;0.30;;;;;;;;;;4951583;29;20482;-66
2023/01/05 00:42:11;;;;;;;0.30;0.30;;;;;;;;;;4952927;29;20489;-66
2023/01/05 00:44:36;;;;;;;0.37;0.37;;;;;;;;;;4936747;29;20439;-67
2023/01/05 00:47:02;;;;;;;0.30;0.30;;;;;;;;;;4952762;29;20517;-66
2023/01/05 00:49:28;;;;;;;0.40;0.40;;;;;;;;;;4953280;29;20455;-66
2023/01/05 00:51:54;;;;;;;0.30;0.30;;;;;;;;;;4953127;28;20441;-68
2023/01/05 00:54:21;;;;;;;0.30;0.30;;;;;;;;;;4951723;29;20466;-66
2023/01/05 00:56:50;;;;;;;1.40;0.30;;;;;;;;;;4936047;29;20527;-67
2023/01/05 00:59:16;;;;;;;0.30;0.30;;;;;;;;;;4952302;29;20478;-67
2023/01/05 01:01:49;;;;;;;1.10;0.40;;;;;;;;;;4951732;29;20446;-67
2023/01/05 01:04:15;;;;;;;0.73;0.33;;;;;;;;;;4951689;28;20439;-66
2023/01/05 01:06:41;;;;;;;0.30;0.30;;;;;;;;;;4952363;29;20466;-67
2023/01/05 01:09:08;;;;;;;0.30;0.30;;;;;;;;;;4952299;29;20800;-68
2023/01/05 01:11:33;;;;;;;0.30;0.30;;;;;;;;;;4952205;29;20454;-68
2023/01/05 01:13:59;;;;;;;0.30;0.30;;;;;;;;;;4952122;29;20439;-67
2023/01/05 01:16:25;;;;;;;0.30;0.30;;;;;;;;;;4952076;28;20442;-66
2023/01/05 01:18:51;;;;;;;0.30;0.30;;;;;;;;;;4952407;29;20806;-67
2023/01/05 01:21:17;;;;;;;0.30;0.30;;;;;;;;;;4952102;29;20514;-67
2023/01/05 01:23:43;;;;;;;0.30;0.30;;;;;;;;;;4950999;29;20446;-67
2023/01/05 01:26:11;;;;;;;0.20;0.20;;;;;;;;;;4933108;28;20450;-67
2023/01/05 01:28:38;;;;;;;0.70;0.33;;;;;;;;;;4952488;28;20443;-67
2023/01/05 01:31:04;;;;;;;0.30;0.30;;;;;;;;;;4952309;29;20477;-67
2023/01/05 01:33:30;;;;;;;1.93;0.30;;;;;;;;;;4952402;29;20786;-67
2023/01/05 01:35:56;;;;;;;0.30;0.30;;;;;;;;;;4933526;29;20486;-67
2023/01/05 01:38:22;;;;;;;0.53;0.30;;;;;;;;;;4950622;28;20471;-66
2023/01/05 01:40:48;;;;;;;0.27;0.27;;;;;;;;;;4950789;28;20510;-67
2023/01/05 01:43:15;;;;;;;0.30;0.30;;;;;;;;;;4952462;28;20934;-67
2023/01/05 01:45:41;;;;;;;0.40;0.40;;;;;;;;;;4951410;28;20443;-67
2023/01/05 01:48:09;;;;;;;0.30;0.30;;;;;;;;;;4952041;28;20979;-67
2023/01/05 01:50:40;;;;;;;0.30;0.30;;;;;;;;;;4951980;28;20450;-68
2023/01/05 01:53:09;;;;;;;0.30;0.30;;;;;;;;;;4935184;29;20446;-67
2023/01/05 01:55:36;;;;;;;0.30;0.30;;;;;;;;;;4952117;29;20486;-67
2023/01/05 01:58:06;;;;;;;0.77;0.30;;;;;;;;;;4951768;28;20435;-67
2023/01/05 02:00:32;;;;;;;0.20;0.20;;;;;;;;;;4934403;29;20494;-66
2023/01/05 02:02:58;;;;;;;0.30;0.30;;;;;;;;;;4950733;29;20417;-68
2023/01/05 02:05:28;;;;;;;1.13;0.30;;;;;;;;;;4934623;29;20944;-66
2023/01/05 02:07:54;;;;;;;0.30;0.30;;;;;;;;;;4933560;28;20961;-66
2023/01/05 02:10:27;;;;;;;0.40;0.40;;;;;;;;;;4951351;29;20442;-66
2023/01/05 02:13:01;;;;;;;0.30;0.30;;;;;;;;;;4952071;28;20414;-66
2023/01/05 02:15:34;;;;;;;0.30;0.30;;;;;;;;;;4951282;28;20427;-67
2023/01/05 02:18:00;;;;;;;0.20;0.20;;;;;;;;;;4950555;29;20434;-66
2023/01/05 02:20:26;;;;;;;0.20;0.20;;;;;;;;;;4951614;29;20569;-71
2023/01/05 02:22:52;;;;;;;0.30;0.30;;;;;;;;;;4951592;29;20462;-68
2023/01/05 02:25:28;;;;;;;0.30;0.30;;;;;;;;;;4933174;29;20478;-69
2023/01/05 02:28:06;;;;;;;0.30;0.30;;;;;;;;;;4950450;29;20430;-68
2023/01/05 02:30:47;;;;;;;0.30;0.30;;;;;;;;;;4951087;28;20426;-69
2023/01/05 02:33:25;;;;;;;0.30;0.30;;;;;;;;;;4934484;29;20867;-68
2023/01/05 02:36:01;;;;;;;0.30;0.30;;;;;;;;;;4951538;29;20465;-69
2023/01/05 02:38:37;;;;;;;0.30;0.30;;;;;;;;;;4950143;29;20454;-66
2023/01/05 02:41:07;;;;;;;0.30;0.30;;;;;;;;;;4949851;29;20529;-66
2023/01/05 02:43:33;;;;;;;0.30;0.30;;;;;;;;;;4950415;29;20423;-66
2023/01/05 02:45:59;;;;;;;1.60;0.40;;;;;;;;;;4951234;29;20438;-66
2023/01/05 02:48:25;;;;;;;0.30;0.30;;;;;;;;;;4950104;29;20434;-66
2023/01/05 02:51:00;;;;;;;0.30;0.30;;;;;;;;;;4952229;28;21673;-66
2023/01/05 02:53:32;;;;;;;0.30;0.30;;;;;;;;;;4955258;28;20697;-67
2023/01/05 02:56:11;;;;;;;0.30;0.30;;;;;;;;;;4937726;29;20452;-66
2023/01/05 02:58:40;;;;;;;2.57;0.30;;;;;;;;;;4954980;29;20431;-66
2023/01/05 03:01:08;;;;;;;0.30;0.30;;;;;;;;;;4955463;28;20434;-66
2023/01/05 03:03:39;;;;;;;0.30;0.30;;;;;;;;;;4955353;28;20427;-66
2023/01/05 03:06:18;;;;;;;0.20;0.20;;;;;;;;;;4955037;29;20819;-66
2023/01/05 03:08:48;;;;;;;0.53;0.33;;;;;;;;;;4954098;29;20434;-66
2023/01/05 03:14:24;;;;;;;0.20;0.20;;;;;;;;;;4955109;29;20418;-66
2023/01/05 03:16:50;;;;;;;0.30;0.30;;;;;;;;;;4955346;29;20430;-66
2023/01/05 03:19:38;;;;;;;0.30;0.30;;;;;;;;;;4954753;28;20482;-66
2023/01/05 03:35:58;;;;;;;0.30;0.30;;;;;;;;;;4954532;29;20433;-66
2023/01/05 03:38:44;;;;;;;0.20;0.20;;;;;;;;;;4954072;28;20435;-68
2023/01/05 03:41:12;;;;;;;0.20;0.20;;;;;;;;;;4937416;29;20555;-67
2023/01/05 03:43:38;;;;;;;0.30;0.30;;;;;;;;;;4955021;28;20482;-67
2023/01/05 03:46:12;;;;;;;0.20;0.20;;;;;;;;;;4954141;29;20481;-67
2023/01/05 03:48:38;;;;;;;0.30;0.30;;;;;;;;;;4954024;29;20422;-67
2023/01/05 03:51:04;;;;;;;0.20;0.20;;;;;;;;;;4954091;29;20431;-66
2023/01/05 03:53:30;;;;;;;0.30;0.30;;;;;;;;;;4954442;29;20486;-67
2023/01/05 03:55:56;;;;;;;0.30;0.30;;;;;;;;;;4953352;29;20974;-66
2023/01/05 03:58:22;;;;;;;0.30;0.30;;;;;;;;;;4953617;29;20430;-66
2023/01/05 04:00:48;;;;;;;0.30;0.30;;;;;;;;;;4954058;29;20490;-67
2023/01/05 04:03:14;;;;;;;0.20;0.20;;;;;;;;;;4937147;29;20525;-67
2023/01/05 04:05:39;;;;;;;0.97;0.67;;;;;;;;;;4952850;28;20447;-67
2023/01/05 04:08:05;;;;;;;0.33;0.30;;;;;;;;;;4953895;29;20423;-66
2023/01/05 04:10:31;;;;;;;0.20;0.20;;;;;;;;;;4953303;28;20442;-66
2023/01/05 04:12:57;;;;;;;0.30;0.30;;;;;;;;;;4953856;29;20430;-66
2023/01/05 04:15:23;;;;;;;0.20;0.20;;;;;;;;;;4953053;28;20438;-66
2023/01/05 04:17:49;;;;;;;0.50;0.30;;;;;;;;;;4953683;28;20501;-66
2023/01/05 04:20:15;;;;;;;0.20;0.20;;;;;;;;;;4953800;29;20497;-66
2023/01/05 04:22:41;;;;;;;0.40;0.40;;;;;;;;;;4953991;29;20435;-66
2023/01/05 04:25:07;;;;;;;0.30;0.30;;;;;;;;;;4952944;28;20795;-66
2023/01/05 04:27:33;;;;;;;1.90;0.40;;;;;;;;;;4953664;29;20538;-66
2023/01/05 04:29:59;;;;;;;0.30;0.30;;;;;;;;;;4953588;29;20952;-66
2023/01/05 04:32:25;;;;;;;0.20;0.20;;;;;;;;;;4953650;29;20470;-66
2023/01/05 04:34:51;;;;;;;0.30;0.30;;;;;;;;;;4953423;29;20451;-66
2023/01/05 04:37:17;;;;;;;0.30;0.30;;;;;;;;;;4936022;29;20447;-66
2023/01/05 04:39:43;;;;;;;0.20;0.20;;;;;;;;;;4953059;29;20494;-66
2023/01/05 04:42:09;;;;;;;0.20;0.20;;;;;;;;;;4953248;29;20437;-66
2023/01/05 04:44:35;;;;;;;0.30;0.30;;;;;;;;;;4953736;29;20936;-66
2023/01/05 04:47:01;;;;;;;0.30;0.30;;;;;;;;;;4952727;29;20798;-66
2023/01/05 04:49:27;;;;;;;0.20;0.20;;;;;;;;;;4952859;29;20441;-66
2023/01/05 04:51:53;;;;;;;0.30;0.30;;;;;;;;;;4935880;29;20435;-66
2023/01/05 04:54:19;;;;;;;0.30;0.30;;;;;;;;;;4936288;29;21038;-66
2023/01/05 04:56:45;;;;;;;0.40;0.30;;;;;;;;;;4952857;29;21318;-66
2023/01/05 04:59:11;;;;;;;0.20;0.20;;;;;;;;;;4952508;29;20833;-66
2023/01/05 05:01:37;;;;;;;0.30;0.30;;;;;;;;;;4953305;29;20542;-66
2023/01/05 05:04:03;;;;;;;0.30;0.30;;;;;;;;;;4952724;28;20431;-66
2023/01/05 05:06:28;;;;;;;0.93;0.40;;;;;;;;;;4952349;28;20825;-66
2023/01/05 05:08:54;;;;;;;0.30;0.30;;;;;;;;;;4951084;28;20521;-66
2023/01/05 05:11:21;;;;;;;0.20;0.20;;;;;;;;;;4952977;29;20507;-66
2023/01/05 05:13:46;;;;;;;0.30;0.30;;;;;;;;;;4952502;28;20463;-66
2023/01/05 05:16:13;;;;;;;0.30;0.30;;;;;;;;;;4935632;29;20991;-66
2023/01/05 05:18:38;;;;;;;0.30;0.30;;;;;;;;;;4936601;29;20467;-66
2023/01/05 05:21:05;;;;;;;0.40;0.40;;;;;;;;;;4952680;29;20455;-66
2023/01/05 05:23:31;;;;;;;0.30;0.30;;;;;;;;;;4952393;29;20529;-66
2023/01/05 05:25:57;;;;;;;0.30;0.30;;;;;;;;;;4952811;29;20892;-66
2023/01/05 05:28:26;;;;;;;0.20;0.20;;;;;;;;;;4952461;29;20430;-66
2023/01/05 05:30:52;;;;;;;0.30;0.30;;;;;;;;;;4952302;28;20521;-66
2023/01/05 05:33:18;;;;;;;0.30;0.30;;;;;;;;;;4953278;29;20442;-66
2023/01/05 05:35:44;;;;;;;0.30;0.30;;;;;;;;;;4952002;29;20439;-66
2023/01/05 05:38:10;;;;;;;0.30;0.30;;;;;;;;;;4950495;29;20431;-66
2023/01/05 05:40:36;;;;;;;1.43;0.30;;;;;;;;;;4951110;29;20541;-66
2023/01/05 05:43:02;;;;;;;0.30;0.30;;;;;;;;;;4952917;29;20426;-66
2023/01/05 05:45:28;;;;;;;0.30;0.30;;;;;;;;;;4952266;29;20431;-66
2023/01/05 05:47:54;;;;;;;1.30;0.90;;;;;;;;;;4952095;29;20453;-66
2023/01/05 05:50:20;;;;;;;0.43;0.30;;;;;;;;;;4952289;29;20431;-66
2023/01/05 05:52:46;;;;;;;0.40;0.40;;;;;;;;;;4952042;29;20445;-66
2023/01/05 05:55:12;;;;;;;1.17;0.20;;;;;;;;;;4950961;29;20435;-67
2023/01/05 05:57:38;;;;;;;0.73;0.73;;;;;;;;;;4948931;28;20888;-67
2023/01/05 06:00:04;;;;;;;0.63;0.63;;;;;;;;;;4951001;29;20486;-66
2023/01/05 06:02:30;;;;;;;0.40;0.40;;;;;;;;;;4951297;29;20594;-66
2023/01/05 06:04:56;;;;;;;0.30;0.30;;;;;;;;;;4950904;28;20808;-67
2023/01/05 06:07:22;;;;;;;0.30;0.30;;;;;;;;;;4950710;29;20534;-67
2023/01/05 06:09:48;;;;;;;0.30;0.30;;;;;;;;;;4949898;28;20443;-66
2023/01/05 06:12:14;;;;;;;0.60;0.60;;;;;;;;;;4951140;29;20447;-66
2023/01/05 06:14:40;;;;;;;0.30;0.30;;;;;;;;;;4951119;28;20442;-67
2023/01/05 06:17:06;;;;;;;0.20;0.20;;;;;;;;;;4950640;28;20525;-66
2023/01/05 06:19:32;;;;;;;0.33;0.33;;;;;;;;;;4951338;29;20979;-67
2023/01/05 06:21:58;;;;;;;0.30;0.30;;;;;;;;;;4951204;28;20485;-67
2023/01/05 06:24:24;;;;;;;0.30;0.30;;;;;;;;;;4948156;28;20439;-67
2023/01/05 06:26:50;;;;;;;0.30;0.30;;;;;;;;;;4932916;29;20473;-70
2023/01/05 06:29:16;;;;;;;0.30;0.30;;;;;;;;;;4950935;29;20442;-66
2023/01/05 06:31:42;;;;;;;0.20;0.20;;;;;;;;;;4950323;29;20483;-66
2023/01/05 06:34:08;;;;;;;0.30;0.30;;;;;;;;;;4950860;29;20442;-67
2023/01/05 06:36:34;;;;;;;2.30;0.40;;;;;;;;;;4951123;29;20430;-67
2023/01/05 06:38:59;;;;;;;0.30;0.30;;;;;;;;;;4949386;28;20561;-67
2023/01/05 06:41:25;;;;;;;0.30;0.30;;;;;;;;;;4950436;28;20523;-67
2023/01/05 06:43:51;;;;;;;6.80;0.60;;;;;;;;;;4950977;29;20426;-67
2023/01/05 06:46:17;;;;;;;0.33;0.33;;;;;;;;;;4950478;29;20865;-66
2023/01/05 06:48:43;;;;;;;0.30;0.30;;;;;;;;;;4951097;29;20430;-68
2023/01/05 06:51:09;;;;;;;1.17;1.17;;;;;;;;;;4950109;29;20505;-67
2023/01/05 06:53:35;;;;;;;0.60;0.40;;;;;;;;;;4950514;28;20924;-67
2023/01/05 06:56:01;;;;;;;3.03;0.50;;;;;;;;;;4950278;29;20447;-68
2023/01/05 06:58:27;;;;;;;1.60;1.50;;;;;;;;;;4950672;29;20708;-67
2023/01/05 07:00:54;;;;;;;0.70;0.70;;;;;;;;;;4950285;28;20482;-67
2023/01/05 07:03:22;;;;;;;1.70;0.40;;;;;;;;;;4950905;29;20953;-66
2023/01/05 07:05:48;;;;;;;0.30;0.30;;;;;;;;;;4950094;29;20483;-67
2023/01/05 07:08:14;;;;;;;0.43;0.30;;;;;;;;;;4932875;29;20466;-68
2023/01/05 07:10:40;;;;;;;0.30;0.30;;;;;;;;;;4949757;29;20447;-68
2023/01/05 07:13:06;;;;;;;5.50;0.50;;;;;;;;;;4950286;28;20435;-67
2023/01/05 07:15:32;;;;;;;0.40;0.40;;;;;;;;;;4950019;29;20543;-67
2023/01/05 07:17:58;;;;;;;0.30;0.30;;;;;;;;;;4950189;29;20431;-67
2023/01/05 07:20:24;;;;;;;0.40;0.40;;;;;;;;;;4949419;28;21062;-67
2023/01/05 07:22:50;;;;;;;0.70;0.70;;;;;;;;;;4949492;28;20860;-67
2023/01/05 07:25:16;;;;;;;3.10;0.30;;;;;;;;;;4949085;29;20443;-67
2023/01/05 07:27:42;;;;;;;0.40;0.40;;;;;;;;;;4948076;29;20427;-67
2023/01/05 07:30:08;;;;;;;0.30;0.30;;;;;;;;;;4947604;29;20953;-66
2023/01/05 07:32:34;;;;;;;0.30;0.30;;;;;;;;;;4949452;28;20486;-67
2023/01/05 07:35:01;;;;;;;0.60;0.60;;;;;;;;;;4950401;28;20537;-68
2023/01/05 07:37:27;;;;;;;0.37;0.37;;;;;;;;;;4951888;28;20419;-67
2023/01/05 07:39:53;;;;;;;2.77;1.33;;;;;;;;;;4953752;28;20833;-67
2023/01/05 07:42:19;;;;;;;0.33;0.33;;;;;;;;;;4952987;28;20463;-67
2023/01/05 07:44:45;;;;;;;3.47;3.27;;;;;;;;;;4953332;29;20513;-67
2023/01/05 07:47:11;;;;;;;0.37;0.37;;;;;;;;;;4936156;29;20443;-66
2023/01/05 07:49:37;;;;;;;1.30;1.30;;;;;;;;;;4950863;29;20447;-66
2023/01/05 07:52:03;;;;;;;0.30;0.30;;;;;;;;;;4948173;28;20441;-67
2023/01/05 07:54:29;;;;;;;0.40;0.40;;;;;;;;;;4954163;28;20505;-67
2023/01/05 07:56:55;;;;;;;0.40;0.40;;;;;;;;;;4936185;29;20534;-67
2023/01/05 07:59:21;;;;;;;0.30;0.30;;;;;;;;;;4935591;29;20475;-67
2023/01/05 08:01:48;;;;;;;0.60;0.50;;;;;;;;;;4949932;28;20518;-67
2023/01/05 08:04:14;;;;;;;0.33;0.33;;;;;;;;;;4946647;29;20513;-67
2023/01/05 08:06:39;;;;;;;0.80;0.80;;;;;;;;;;4949935;29;20823;-67
2023/01/05 08:11:50;;;;;;;0.63;0.50;;;;;;;;;;4948475;28;20961;-66
2023/01/05 08:14:16;;;;;;;0.97;0.40;;;;;;;;;;4947663;29;20470;-66
2023/01/05 08:16:42;;;;;;;0.40;0.40;;;;;;;;;;4945561;28;21206;-65
2023/01/05 08:19:09;;;;;;;0.40;0.40;;;;;;;;;;4949732;29;20885;-66
2023/01/05 08:21:35;;;;;;;0.30;0.30;;;;;;;;;;4950531;29;20450;-67
2023/01/05 08:24:01;;;;;;;2.37;1.00;;;;;;;;;;4946645;29;20462;-66
2023/01/05 08:26:27;;;;;;;0.40;0.40;;;;;;;;;;4886865;28;20474;-66
2023/01/05 08:28:53;;;;;;;0.30;0.30;;;;;;;;;;4952510;29;20434;-66
2023/01/05 08:31:21;;;;;;;0.47;0.47;;;;;;;;;;4951651;29;21021;-66
2023/01/05 08:33:47;;;;;;;0.30;0.30;;;;;;;;;;4947336;29;20442;-69
2023/01/05 08:36:14;;;;;;;0.30;0.30;;;;;;;;;;4946600;28;20808;-67
2023/01/05 08:38:46;;;;;;;0.30;0.30;;;;;;;;;;4946864;29;20443;-67
2023/01/05 08:41:13;;;;;;;0.40;0.40;;;;;;;;;;4947253;28;20505;-67
2023/01/05 08:43:39;;;;;;;1.27;0.33;;;;;;;;;;4948518;28;20525;-68
2023/01/05 08:46:05;;;;;;;1.40;0.60;;;;;;;;;;4950502;28;20534;-68
2023/01/05 08:48:31;;;;;;;0.30;0.30;;;;;;;;;;4950029;28;20446;-67
2023/01/05 08:51:02;;;;;;;0.67;0.60;;;;;;;;;;4947306;28;20505;-67
2023/01/05 08:53:28;;;;;;;0.67;0.40;;;;;;;;;;4934210;29;20791;-68
2023/01/05 08:55:54;;;;;;;0.30;0.30;;;;;;;;;;4930019;29;20435;-66
2023/01/05 08:58:20;;;;;;;0.60;0.60;;;;;;;;;;4947135;28;20542;-66
2023/01/05 09:00:46;;;;;;;1.77;0.33;;;;;;;;;;4948560;29;20514;-67
2023/01/05 09:03:12;;;;;;;0.40;0.40;;;;;;;;;;4952025;29;20966;-66
2023/01/05 09:05:38;;;;;;;0.30;0.30;;;;;;;;;;4952256;29;20431;-67
2023/01/05 09:08:04;;;;;;;0.53;0.53;;;;;;;;;;4951519;29;20435;-67
2023/01/05 09:10:30;;;;;;;1.13;0.50;;;;;;;;;;4951782;28;20466;-66
2023/01/05 09:12:56;;;;;;;0.50;0.50;;;;;;;;;;4947849;28;20442;-66
2023/01/05 09:15:22;;;;;;;4.10;0.60;;;;;;;;;;4945862;28;20447;-67
2023/01/05 09:17:48;;;;;;;0.43;0.43;;;;;;;;;;4947674;29;20463;-66
2023/01/05 09:20:14;;;;;;;0.40;0.40;;;;;;;;;;4947958;29;20498;-67
2023/01/05 09:22:40;;;;;;;0.60;0.60;;;;;;;;;;4947878;28;20462;-67
2023/01/05 09:25:06;;;;;;;0.50;0.50;;;;;;;;;;4948107;28;20947;-66
2023/01/05 09:27:32;;;;;;;1.67;0.63;;;;;;;;;;4951490;29;20490;-67
2023/01/05 09:29:58;;;;;;;0.73;0.73;;;;;;;;;;4950453;28;20442;-67
2023/01/05 09:32:24;;;;;;;1.00;0.73;;;;;;;;;;4951850;29;20482;-67
2023/01/05 09:34:50;;;;;;;0.37;0.37;;;;;;;;;;4934516;29;21018;-66
2023/01/05 09:37:16;;;;;;;1.20;0.40;;;;;;;;;;4948556;29;20536;-67
2023/01/05 09:39:42;;;;;;;0.50;0.50;;;;;;;;;;4947100;29;21271;-67
2023/01/05 09:42:11;;;;;;;0.30;0.30;;;;;;;;;;4948497;29;20893;-69
2023/01/05 09:44:40;;;;;;;1.20;1.00;;;;;;;;;;4946191;28;20443;-67
2023/01/05 09:47:25;;;;;;;2.47;2.30;;;;;;;;;;4947770;28;20529;-67
2023/01/05 09:49:51;;;;;;;4.37;1.50;;;;;;;;;;4946952;28;20465;-67
2023/01/05 09:52:19;;;;;;;2.73;0.80;;;;;;;;;;4950928;29;20466;-66
2023/01/05 09:54:45;;;;;;;1.47;1.40;;;;;;;;;;4928384;29;20478;-67
2023/01/05 09:57:16;;;;;;;4.90;0.50;;;;;;;;;;4946478;28;20701;-67
2023/01/05 09:59:43;;;;;;;0.80;0.50;;;;;;;;;;4945909;28;20490;-68
2023/01/05 10:02:32;;;;;;;0.97;0.80;;;;;;;;;;4951922;28;20445;-67
2023/01/05 10:04:59;;;;;;;0.50;0.50;;;;;;;;;;4940629;29;20869;-67
2023/01/05 10:07:31;;;;;;;0.43;0.43;;;;;;;;;;4946291;29;20438;-67
2023/01/05 10:10:00;;;;;;;0.60;0.60;;;;;;;;;;4952114;28;20419;-67
2023/01/05 10:15:17;;;;;;;0.80;0.60;;;;;;;;;;4950518;29;20447;-67
2023/01/05 10:17:43;;;;;;;0.53;0.50;;;;;;;;;;4950842;29;20453;-67
2023/01/05 10:20:31;;;;;;;0.40;0.40;;;;;;;;;;4933882;29;20533;-68
2023/01/05 10:23:02;;;;;;;0.60;0.50;;;;;;;;;;4935115;29;20494;-69
2023/01/05 10:25:31;;;;;;;0.93;0.93;;;;;;;;;;4949932;29;20434;-68
2023/01/05 10:28:20;;;;;;;1.47;0.47;;;;;;;;;;4950551;29;20935;-67
2023/01/05 10:30:46;;;;;;;0.83;0.30;;;;;;;;;;4951165;29;20603;-66
2023/01/05 10:33:27;;;;;;;0.33;0.33;;;;;;;;;;4951713;29;20537;-67
2023/01/05 10:35:53;;;;;;;0.40;0.40;;;;;;;;;;4950299;28;20442;-68
2023/01/05 10:38:29;;;;;;;0.57;0.57;;;;;;;;;;4950230;29;20800;-67
2023/01/05 10:40:55;;;;;;;0.40;0.40;;;;;;;;;;4951492;28;20486;-67
2023/01/05 10:43:33;;;;;;;0.63;0.63;;;;;;;;;;4950514;29;20430;-67
2023/01/05 10:46:07;;;;;;;1.07;0.60;;;;;;;;;;4950759;28;20434;-67
2023/01/05 10:48:35;;;;;;;0.83;0.83;;;;;;;;;;4950977;29;20430;-67
2023/01/05 10:51:02;;;;;;;1.30;1.20;;;;;;;;;;4934130;29;20470;-67
2023/01/05 10:53:28;;;;;;;0.90;0.90;;;;;;;;;;4950996;29;20446;-67
2023/01/05 10:56:00;;;;;;;3.40;3.30;;;;;;;;;;4948823;28;20451;-67
2023/01/05 10:58:27;;;;;;;3.10;2.90;;;;;;;;;;4949832;28;20430;-67
2023/01/05 11:00:55;;;;;;;3.33;2.90;;;;;;;;;;4949310;28;20695;-68
2023/01/05 11:03:26;;;;;;;3.63;3.43;;;;;;;;;;4933432;29;20463;-66
2023/01/05 11:05:52;;;;;;;5.67;5.17;;;;;;;;;;4948690;29;20492;-67
2023/01/05 11:08:20;;;;;;;10.57;2.83;;;;;;;;;;4950529;29;20469;-67
2023/01/05 11:11:06;;;;;;;30.73;18.53;;;;;;;;;;4951502;28;20415;-67
2023/01/05 11:13:36;;;;;;;50.23;26.27;;;;;;;;;;4954373;29;20493;-68
2023/01/05 11:16:08;;;;;;;20.23;8.70;;;;;;;;;;4954199;29;20582;-67
2023/01/05 11:18:34;;;;;;;18.13;13.07;;;;;;;;;;4936739;29;20463;-67
2023/01/05 11:21:04;;;;;;;3.33;3.23;;;;;;;;;;4954612;29;20490;-68
2023/01/05 11:23:38;;;;;;;1.47;1.47;;;;;;;;;;4954506;29;20517;-67
2023/01/05 11:26:19;;;;;;;3.70;3.60;;;;;;;;;;4949204;29;20821;-68
2023/01/05 11:29:03;;;;;;;3.27;1.40;;;;;;;;;;4928882;29;20451;-67
2023/01/05 11:31:34;;;;;;;0.90;0.90;;;;;;;;;;4951132;29;20470;-67
2023/01/05 11:34:03;;;;;;;1.00;1.00;;;;;;;;;;4952622;29;20525;-67
2023/01/05 11:36:29;;;;;;;1.40;1.40;;;;;;;;;;4954087;29;20419;-67
2023/01/05 11:38:56;;;;;;;0.77;0.77;;;;;;;;;;4951328;28;20438;-67
2023/01/05 11:41:23;;;;;;;0.90;0.90;;;;;;;;;;4953220;29;20491;-62
2023/01/05 11:43:50;;;;;;;1.60;1.60;;;;;;;;;;4953764;28;20419;-62
2023/01/05 11:46:16;;;;;;;2.50;2.50;;;;;;;;;;4954171;29;20450;-62
2023/01/05 11:48:49;;;;;;;2.13;2.03;;;;;;;;;;4953702;29;20991;-67
2023/01/05 11:51:32;;;;;;;1.93;1.87;;;;;;;;;;4936595;29;20803;-67
2023/01/05 11:53:58;;;;;;;7.23;6.53;;;;;;;;;;4953444;28;20462;-67
2023/01/05 11:56:24;;;;;;;3.70;3.40;;;;;;;;;;4936745;29;20983;-67
2023/01/05 11:58:54;;;;;;;1.80;1.70;;;;;;;;;;4954185;29;20775;-67
2023/01/05 12:01:39;;;;;;;1.93;1.93;;;;;;;;;;4954572;29;20453;-66
2023/01/05 12:04:26;;;;;;;4.40;4.10;;;;;;;;;;4950928;29;20443;-66
2023/01/05 12:07:15;;;;;;;4.60;3.93;;;;;;;;;;4930293;29;20497;-67
2023/01/05 12:09:59;;;;;;;2.67;2.57;;;;;;;;;;4954075;28;20438;-67
2023/01/05 12:12:31;;;;;;;0.90;0.90;;;;;;;;;;4953351;28;20915;-67
2023/01/05 12:15:03;;;;;;;0.90;0.90;;;;;;;;;;4952172;29;20423;-67
2023/01/05 12:17:49;;;;;;;2.00;0.40;;;;;;;;;;4951784;29;20435;-67
2023/01/05 12:20:40;;;;;;;1.10;1.10;;;;;;;;;;4951702;28;20486;-67
2023/01/05 12:23:06;;;;;;;0.50;0.50;;;;;;;;;;4934207;29;20861;-67
2023/01/05 12:25:36;;;;;;;0.40;0.40;;;;;;;;;;4952986;28;20490;-67
2023/01/05 12:28:13;;;;;;;0.50;0.50;;;;;;;;;;4952274;29;20211;-67
2023/01/05 12:30:57;;;;;;;0.30;0.30;;;;;;;;;;4953573;28;20434;-67
2023/01/05 12:33:23;;;;;;;4.50;0.37;;;;;;;;;;4953164;29;20507;-67
2023/01/05 12:35:55;;;;;;;0.60;0.53;;;;;;;;;;4952477;29;20446;-68
2023/01/05 12:38:39;;;;;;;0.50;0.50;;;;;;;;;;4951666;29;20454;-67
2023/01/05 12:41:24;;;;;;;2.97;0.90;;;;;;;;;;4952520;28;20804;-68
2023/01/05 12:44:05;;;;;;;0.40;0.40;;;;;;;;;;4952471;29;20431;-68
2023/01/05 12:46:40;;;;;;;0.40;0.40;;;;;;;;;;4953177;29;20429;-68
2023/01/05 12:49:12;;;;;;;0.87;0.87;;;;;;;;;;4952621;29;20437;-69
2023/01/05 12:51:41;;;;;;;2.53;2.43;;;;;;;;;;4952732;29;20845;-68
2023/01/05 12:54:11;;;;;;;3.50;3.27;;;;;;;;;;4951599;29;20462;-67
2023/01/05 12:56:39;;;;;;;1.50;1.50;;;;;;;;;;4953063;29;20508;-69
2023/01/05 12:59:11;;;;;;;2.00;2.00;;;;;;;;;;4934668;29;20443;-68
2023/01/05 13:01:40;;;;;;;0.50;0.50;;;;;;;;;;4952619;29;20501;-68
2023/01/05 13:04:27;;;;;;;0.73;0.73;;;;;;;;;;4951523;29;20442;-69
2023/01/05 13:06:56;;;;;;;1.13;0.43;;;;;;;;;;4951700;29;20443;-68
2023/01/05 13:09:24;;;;;;;2.13;0.80;;;;;;;;;;4935460;28;20537;-69
2023/01/05 13:12:04;;;;;;;0.40;0.40;;;;;;;;;;4953015;28;20470;-68
2023/01/05 13:14:39;;;;;;;2.10;0.50;;;;;;;;;;4951153;28;20458;-68
2023/01/05 13:17:19;;;;;;;6.23;1.27;;;;;;;;;;4953885;28;20461;-68
2023/01/05 13:19:49;;;;;;;0.57;0.57;;;;;;;;;;4935633;29;20885;-68
2023/01/05 13:22:22;;;;;;;0.53;0.53;;;;;;;;;;4934900;29;20439;-69
2023/01/05 13:24:57;;;;;;;4.07;0.70;;;;;;;;;;4952049;28;20430;-68
2023/01/05 13:27:24;;;;;;;0.70;0.70;;;;;;;;;;4953176;28;20496;-68
2023/01/05 13:29:56;;;;;;;1.07;0.63;;;;;;;;;;4952392;28;20435;-69
2023/01/05 13:32:31;;;;;;;8.43;0.40;;;;;;;;;;4952482;29;20466;-69
2023/01/05 13:34:57;;;;;;;1.33;0.60;;;;;;;;;;4951747;28;20442;-68
2023/01/05 13:37:38;;;;;;;0.93;0.93;;;;;;;;;;4952056;28;20800;-69
2023/01/05 13:40:24;;;;;;;0.53;0.53;;;;;;;;;;4936239;29;20863;-69
2023/01/05 13:42:53;;;;;;;0.50;0.50;;;;;;;;;;4922119;28;20796;-69
2023/01/05 13:45:20;;;;;;;2.43;0.70;;;;;;;;;;4953511;28;20586;-69
2023/01/05 13:48:05;;;;;;;0.40;0.40;;;;;;;;;;4953921;28;20438;-69
2023/01/05 13:50:43;;;;;;;0.70;0.70;;;;;;;;;;4952602;28;20811;-68
2023/01/05 13:53:09;;;;;;;0.40;0.40;;;;;;;;;;4951435;29;20437;-67
2023/01/05 13:55:37;;;;;;;4.47;0.60;;;;;;;;;;4951422;29;20438;-70
2023/01/05 13:58:04;;;;;;;0.50;0.50;;;;;;;;;;4951507;28;20443;-68
2023/01/05 14:00:35;;;;;;;2.23;0.60;;;;;;;;;;4951774;29;20478;-67
2023/01/05 14:03:10;;;;;;;5.40;0.70;;;;;;;;;;4952167;29;20834;-68
2023/01/05 14:05:56;;;;;;;0.40;0.40;;;;;;;;;;4951613;29;20434;-67
2023/01/05 14:08:33;;;;;;;2.60;2.50;;;;;;;;;;4933714;29;20435;-68
2023/01/05 14:11:16;;;;;;;0.50;0.50;;;;;;;;;;4955296;28;20468;-68
2023/01/05 14:13:52;;;;;;;0.50;0.50;;;;;;;;;;4953459;28;21128;-68
2023/01/05 14:16:33;;;;;;;0.50;0.40;;;;;;;;;;4938287;28;20450;-68
2023/01/05 14:19:18;;;;;;;2.30;0.60;;;;;;;;;;4955424;28;20430;-67
2023/01/05 14:21:52;;;;;;;0.50;0.50;;;;;;;;;;4954416;28;20447;-68
2023/01/05 14:24:36;;;;;;;0.87;0.87;;;;;;;;;;4954622;28;20442;-68
2023/01/05 14:27:18;;;;;;;0.60;0.60;;;;;;;;;;4954298;28;20534;-68
2023/01/05 14:29:44;;;;;;;0.70;0.70;;;;;;;;;;4953388;28;21002;-68
2023/01/05 14:32:16;;;;;;;0.40;0.40;;;;;;;;;;4952442;28;20529;-68
2023/01/05 14:34:51;;;;;;;0.70;0.70;;;;;;;;;;4935089;29;20498;-67
2023/01/05 14:37:33;;;;;;;2.87;0.67;;;;;;;;;;4951258;28;20408;-67
2023/01/05 14:39:59;;;;;;;0.60;0.60;;;;;;;;;;4951369;29;20533;-67
2023/01/05 14:42:34;;;;;;;2.00;0.57;;;;;;;;;;4934484;29;20439;-68
2023/01/05 14:45:01;;;;;;;0.60;0.60;;;;;;;;;;4951311;28;20525;-67
2023/01/05 14:47:40;;;;;;;0.77;0.40;;;;;;;;;;4951625;28;20483;-67
2023/01/05 14:50:23;;;;;;;1.80;0.80;;;;;;;;;;4951444;28;20434;-67
2023/01/05 14:52:52;;;;;;;0.60;0.40;;;;;;;;;;4951075;28;20462;-68
2023/01/05 14:55:20;;;;;;;1.90;0.83;;;;;;;;;;4950359;28;20467;-67
2023/01/05 14:57:48;;;;;;;3.90;0.70;;;;;;;;;;4951407;29;20435;-67
2023/01/05 15:00:37;;;;;;;0.77;0.77;;;;;;;;;;4951009;29;20478;-67
2023/01/05 15:03:13;;;;;;;0.70;0.70;;;;;;;;;;4943978;29;20427;-67
2023/01/05 15:05:42;;;;;;;1.27;1.27;;;;;;;;;;4933575;29;20506;-68
2023/01/05 15:08:17;;;;;;;0.60;0.50;;;;;;;;;;4949196;29;20419;-68
2023/01/05 15:11:01;;;;;;;5.27;1.23;;;;;;;;;;4950177;29;20828;-68
2023/01/05 15:13:41;;;;;;;2.67;0.50;;;;;;;;;;4950785;29;20431;-68
2023/01/05 15:16:26;;;;;;;5.93;0.90;;;;;;;;;;4950434;29;20438;-68
2023/01/05 15:19:21;;;;;;;0.70;0.70;;;;;;;;;;4950911;28;20915;-68
2023/01/05 15:22:05;;;;;;;1.43;1.43;;;;;;;;;;4950454;29;20461;-68
2023/01/05 15:24:50;;;;;;;0.50;0.50;;;;;;;;;;4949561;29;20923;-68
2023/01/05 15:27:22;;;;;;;1.47;1.00;;;;;;;;;;4950825;29;20510;-69
2023/01/05 15:29:54;;;;;;;2.20;0.80;;;;;;;;;;4950438;29;20427;-68
2023/01/05 15:32:25;;;;;;;0.70;0.70;;;;;;;;;;4950530;29;20514;-68